DRI-NNSC Building Weather observations

Data are for 10 minute period ending at time listed.
 Day   Time   Solar   Ave.   Ave.  Ave.  Vector  Max.   Baro.   Total    
  of    of     Rad.   Air    Rel.  Wind   Wind   Wind  Press.  Precip.   
Year   Day            Temp.  Hum.  Speed  Dir.   Gust                    
2015   (PST)  Kw/m2    F      %     mph   deg.    mph    mb.     in.     
-------------------------------------------------------------------------
  30   11:20   0.52   46.5    56    5.4    82     11   851.1    0.00 
  30   11:30   0.53   46.5    56    6.2    60     10   851.0    0.00 
  30   11:40   0.54   46.7    56    4.5    68      7   850.8    0.00 
  30   11:50   0.55   47.2    54    3.7    88      8   850.7    0.00 
  30   12:00   0.50   47.6    53    6.3    57     12   850.6    0.00 
  30   12:10   0.56   47.7    53    7.1    87     12   850.4    0.00 
  30   12:20   0.56   48.1    52    7.1    57     13   850.2    0.00 
  30   12:30   0.57   48.6    50    5.8    85     11   850.0    0.00 
  30   12:40   0.61   49.0    50    5.6    98     11   849.9    0.00 
  30   12:50   0.59   49.4    48    5.8    45     12   849.8    0.00 
  30   13:00   0.60   50.1    47    4.4    69     11   849.7    0.00 
  30   13:10   0.56   50.2    46    6.2    48     12   849.6    0.00 
  30   13:20   0.53   49.5    46    5.1    70     12   849.4    0.00 
  30   13:30   0.52   50.6    44    4.2    48     11   849.2    0.00 
  30   13:40   0.48   50.2    44    5.6    48     13   849.1    0.00 
  30   13:50   0.49   50.4    44    5.0    80     11   849.0    0.00 
  30   14:00   0.47   50.1    44    8.3    34     16   849.0    0.00 
  30   14:10   0.45   49.9    44    7.3    39     14   848.9    0.00 
  30   14:20   0.43   49.9    44   10.1    22     16   848.9    0.00 
  30   14:30   0.41   50.3    43    8.3    28     15   848.9    0.00 
  30   14:40   0.39   50.0    43    7.3    37     12   848.8    0.00 
  30   14:50   0.37   50.3    42    5.4    53     12   848.8    0.00 
  30   15:00   0.34   50.0    43    6.9    38     13   848.6    0.00 
  30   15:10   0.32   50.2    42    8.3    41     14   848.6    0.00 
  30   15:20   0.29   49.9    42    9.6    22     15   848.6    0.00 
  30   15:30   0.27   49.2    42   10.2    23     14   848.6    0.00 
  30   15:40   0.24   48.8    44   10.5    14     15   848.6    0.00 
  30   15:50   0.22   48.7    43   10.5    20     15   848.6    0.00 
  30   16:00   0.19   48.4    43   11.2    25     17   848.6    0.00 
  30   16:10   0.16   47.8    44   12.3    21     18   848.6    0.00 
  30   16:20   0.14   47.5    45   11.7    22     16   848.6    0.00 
  30   16:30   0.11   47.2    45   11.1    26     16   848.6    0.00 
  30   16:40   0.10   46.5    47   10.8    36     15   848.7    0.00 
  30   16:50   0.07   46.2    48    6.1    28     10   848.7    0.00 
  30   17:00   0.03   45.1    50    9.0    33     14   848.7    0.00 
  30   17:10   0.01   44.4    50   10.5    31     13   848.7    0.00 
  30   17:20   0.01   44.2    50   11.1    28     15   848.8    0.00 
  30   17:30   0.00   44.1    49   10.0    25     16   848.8    0.00 
  30   17:40   0.00   43.9    48   14.2    27     20   848.9    0.00 
  30   17:50   0.00   43.6    48   13.6    27     19   848.9    0.00 
  30   18:00   0.00   43.0    50    8.7    32     14   849.0    0.00 
  30   18:10   0.00   42.9    50    8.9    31     14   849.0    0.00 
  30   18:20   0.00   43.0    50   11.8    30     16   849.0    0.00 
  30   18:30   0.00   42.1    53    7.4    37     11   849.0    0.00 
  30   18:40   0.00   41.3    55    4.2    36      8   849.2    0.00 
  30   18:50   0.00   41.2    55    2.2   343      4   849.3    0.00 
  30   19:00   0.00   41.3    55    2.9   331      5   849.3    0.00 
  30   19:10   0.00   40.4    56    4.6   351     10   849.4    0.00 
  30   19:20   0.00   41.9    54    7.7    12     14   849.4    0.00 
  30   19:30   0.00   41.8    56    9.1    21     14   849.4    0.00 
  30   19:40   0.00   41.1    58    6.3    10     12   849.5    0.00 
  30   19:50   0.00   39.6    58    4.6   332      8   849.5    0.00 
  30   20:00   0.00   38.9    60    4.1   335      8   849.5    0.00 
  30   20:10   0.00   39.9    59    5.1   353      7   849.6    0.00 
  30   20:20   0.00   39.5    60    5.0   339      9   849.7    0.00 
  30   20:30   0.00   38.4    62    5.6   341      8   849.8    0.00 
  30   20:40   0.00   38.3    63    5.4   343      7   849.9    0.00 
  30   20:50   0.00   38.7    63    6.1   349      9   850.0    0.00 
  30   21:00   0.00   38.8    62    6.1   351      8   850.1    0.00 
  30   21:10   0.00   38.8    63    5.0   356      8   850.2    0.00 
  30   21:20   0.00   38.0    65    4.4   345      6   850.4    0.00 
  30   21:30   0.00   37.6    66    4.3   359      8   850.4    0.00 
  30   21:40   0.00   37.6    66    4.9   351      8   850.4    0.00 
  30   21:50   0.00   37.2    67    4.5   348      7   850.4    0.00 
  30   22:00   0.00   36.3    68    5.0   337      7   850.5    0.00 
  30   22:10   0.00   36.4    68    4.5   336      7   850.6    0.00 
  30   22:20   0.00   36.7    68    3.3   336      5   850.7    0.00 
  30   22:30   0.00   36.7    68    2.3   342      4   850.7    0.00 
  30   22:40   0.00   36.1    68    2.0   327      4   850.7    0.00 
  30   22:50   0.00   36.0    69    3.0   313      5   850.7    0.00 
  30   23:00   0.00   35.3    69    3.4   331      5   850.7    0.00 
  30   23:10   0.00   35.8    67    4.8   343      8   850.6    0.00 
  30   23:20   0.00   36.0    65    6.6   354      8   850.6    0.00 
  30   23:30   0.00   36.3    64    7.1     1      9   850.6    0.00 
  30   23:40   0.00   36.2    64    7.2     2      9   850.7    0.00 
  30   23:50   0.00   35.9    64    6.7   360      9   850.7    0.00 
  31    0:00   0.00   35.9    64    6.2   358      8   850.8    0.00 
  31    0:10   0.00   35.8    65    8.2   356     11   850.9    0.00 
  31    0:20   0.00   36.1    64    9.5     1     14   850.9    0.00 
  31    0:30   0.00   35.7    65   11.8   358     16   851.0    0.00 
  31    0:40   0.00   34.6    68   10.6   354     15   851.0    0.00 
  31    0:50   0.00   35.0    67   10.5   353     14   850.9    0.00 
  31    1:00   0.00   35.2    66    9.8   354     15   850.8    0.00 
  31    1:10   0.00   34.7    67   10.0   351     14   850.7    0.00 
  31    1:20   0.00   33.6    69    9.4   348     12   850.8    0.00 
  31    1:30   0.00   33.3    70   10.0   347     13   850.8    0.00 
  31    1:40   0.00   33.2    70   10.0   351     13   850.9    0.00 
  31    1:50   0.00   33.6    69    9.2   350     13   850.8    0.00 
  31    2:00   0.00   34.1    68    8.9   351     12   850.8    0.00 
  31    2:10   0.00   33.8    68    8.8   351     12   850.9    0.00 
  31    2:20   0.00   33.5    69    9.0   352     12   851.0    0.00 
  31    2:30   0.00   33.1    70    8.8   348     12   851.0    0.00 
  31    2:40   0.00   32.6    71    7.1   349     10   851.0    0.00 
  31    2:50   0.00   32.8    70    6.1   348      8   850.9    0.00 
  31    3:00   0.00   33.2    68    5.5   347      7   851.0    0.00 
  31    3:10   0.00   32.6    70    2.1   360      4   850.9    0.00 
  31    3:20   0.00   32.0    71    3.9   337      7   850.9    0.00 
  31    3:30   0.00   32.4    71    5.1   350      7   850.9    0.00 
  31    3:40   0.00   32.6    70    4.6   352      7   851.0    0.00 
  31    3:50   0.00   32.4    71    4.9   345      8   851.1    0.00 
  31    4:00   0.00   32.2    71    4.7   346      7   851.1    0.00 
  31    4:10   0.00   31.0    73    6.5   340     11   851.1    0.00 
  31    4:20   0.00   30.4    73    9.6   344     13   851.3    0.00 
  31    4:30   0.00   31.0    72    8.2   345     10   851.3    0.00 
  31    4:40   0.00   31.7    71    4.6   354      7   851.3    0.00 
  31    4:50   0.00   33.9    65    4.7     3      7   851.3    0.00 
  31    5:00   0.00   31.0    71    2.5   316      5   851.3    0.00 
  31    5:10   0.00   30.7    73    4.6   337      7   851.4    0.00 
  31    5:20   0.00   30.7    73    6.6   345     11   851.5    0.00 
  31    5:30   0.00   30.6    72    6.6   339     11   851.5    0.00 
  31    5:40   0.00   30.7    71    3.5   304      7   851.7    0.00 
  31    5:50   0.00   29.1    74    2.8   323      4   851.9    0.00 
  31    6:00   0.00   29.7    74    3.0   352      5   851.9    0.00 
  31    6:10   0.00   30.4    70    2.1   322      7   851.9    0.00 
  31    6:20   0.00   30.5    68    1.9   277      4   851.8    0.00 
  31    6:30   0.00   29.8    68    1.5   332      2   851.8    0.00 
  31    6:40   0.00   30.4    68    1.9    43      3   851.9    0.00 
  31    6:50   0.00   29.9    71    3.0    34      4   851.8    0.00 
  31    7:00   0.00   29.7    73    3.7    29      5   852.0    0.00 
  31    7:10   0.00   30.3    73    1.7    58      3   852.2    0.00 
  31    7:20   0.01   29.6    74    0.8    63      2   852.3    0.00 
  31    7:30   0.02   30.3    71    0.7   198      2   852.4    0.00 
  31    7:40   0.04   30.7    69    2.2    43      4   852.7    0.00 
  31    7:50   0.07   31.1    68    1.9    53      3   852.9    0.00 
  31    8:00   0.10   31.9    68    0.9    52      2   853.0    0.00 
  31    8:10   0.12   32.9    64    1.3   152      3   853.1    0.00 
  31    8:20   0.15   32.5    64    1.4   189      3   853.1    0.00 
  31    8:30   0.17   32.4    66    0.3   281      2   853.3    0.00 
  31    8:40   0.20   33.1    65    0.3    10      2   853.5    0.00 
  31    8:50   0.23   34.0    63    0.6   157      3   853.5    0.00 
  31    9:00   0.26   34.3    63    1.9   165      3   853.7    0.00 
  31    9:10   0.28   34.4    64    2.9   166      5   853.8    0.00 
  31    9:20   0.31   34.6    65    2.9   164      5   853.8    0.00 
  31    9:30   0.34   35.2    64    3.4   162      6   853.7    0.00 
  31    9:40   0.36   36.3    62    3.3   178      6   853.8    0.00 
  31    9:50   0.38   36.3    62    3.5   188      6   854.1    0.00 
  31   10:00   0.40   37.3    59    3.5   170      6   854.1    0.00 
  31   10:10   0.43   37.4    58    3.0   195      6   854.2    0.00 
  31   10:20   0.45   37.7    56    3.4   161      6   854.2    0.00 
  31   10:30   0.47   38.4    54    2.9   160      5   854.2    0.00 
  31   10:40   0.48   38.8    53    2.9   166      5   854.2    0.00 
  31   10:50   0.50   40.4    50    3.1   170      6   854.2    0.00 
  31   11:00   0.51   40.9    49    3.5   190      6   854.0    0.00 
  31   11:10   0.53   41.1    47    3.6   185      7   853.9    0.00 

Return to NNSC graphs page.


Western Regional Climate Center,wrcc@dri.edu